sensor_id;sensor_type;location;lat;lon;timestamp;pressure;altitude;pressure_sealevel;temperature;humidity
32324;BME280;25666;44.350;9.222;2023-05-12T00:00:31;101114.22;;;15.16;100.00
32324;BME280;25666;44.350;9.222;2023-05-12T00:02:56;101108.84;;;15.07;100.00
32324;BME280;25666;44.350;9.222;2023-05-12T00:05:22;101105.84;;;14.96;100.00
32324;BME280;25666;44.350;9.222;2023-05-12T00:07:47;101093.38;;;14.94;100.00
32324;BME280;25666;44.350;9.222;2023-05-12T00:10:12;101103.78;;;14.93;100.00
32324;BME280;25666;44.350;9.222;2023-05-12T00:12:38;101099.50;;;14.99;100.00
32324;BME280;25666;44.350;9.222;2023-05-12T00:15:04;101098.59;;;14.95;100.00
32324;BME280;25666;44.350;9.222;2023-05-12T00:17:30;101090.06;;;14.88;100.00
32324;BME280;25666;44.350;9.222;2023-05-12T00:19:55;101088.97;;;14.93;100.00
32324;BME280;25666;44.350;9.222;2023-05-12T00:22:21;101083.22;;;14.86;100.00
32324;BME280;25666;44.350;9.222;2023-05-12T00:24:46;101087.34;;;14.73;100.00
32324;BME280;25666;44.350;9.222;2023-05-12T00:27:12;101076.38;;;14.64;100.00
32324;BME280;25666;44.350;9.222;2023-05-12T00:29:38;101081.25;;;14.48;100.00
32324;BME280;25666;44.350;9.222;2023-05-12T00:32:04;101084.00;;;14.29;100.00
32324;BME280;25666;44.350;9.222;2023-05-12T00:34:31;101075.50;;;14.25;100.00
32324;BME280;25666;44.350;9.222;2023-05-12T00:36:56;101073.06;;;14.39;100.00
32324;BME280;25666;44.350;9.222;2023-05-12T00:39:22;101072.84;;;14.48;100.00
32324;BME280;25666;44.350;9.222;2023-05-12T00:41:47;101073.81;;;14.56;100.00
32324;BME280;25666;44.350;9.222;2023-05-12T00:44:14;101069.38;;;14.55;100.00
32324;BME280;25666;44.350;9.222;2023-05-12T00:46:39;101068.13;;;14.52;100.00
32324;BME280;25666;44.350;9.222;2023-05-12T00:49:06;101066.97;;;14.34;100.00
32324;BME280;25666;44.350;9.222;2023-05-12T00:51:32;101065.94;;;14.26;100.00
32324;BME280;25666;44.350;9.222;2023-05-12T00:53:57;101062.78;;;14.28;100.00
32324;BME280;25666;44.350;9.222;2023-05-12T00:56:24;101056.91;;;14.33;100.00
32324;BME280;25666;44.350;9.222;2023-05-12T00:58:49;101058.44;;;14.11;100.00
32324;BME280;25666;44.350;9.222;2023-05-12T01:01:15;101064.50;;;13.98;100.00
32324;BME280;25666;44.350;9.222;2023-05-12T01:03:43;101063.63;;;14.13;100.00
32324;BME280;25666;44.350;9.222;2023-05-12T01:06:12;101066.75;;;14.08;100.00
32324;BME280;25666;44.350;9.222;2023-05-12T01:08:39;101069.22;;;13.93;100.00
32324;BME280;25666;44.350;9.222;2023-05-12T01:11:06;101067.16;;;13.90;100.00
32324;BME280;25666;44.350;9.222;2023-05-12T01:13:31;101072.47;;;13.95;100.00
32324;BME280;25666;44.350;9.222;2023-05-12T01:15:58;101072.59;;;13.83;100.00
32324;BME280;25666;44.350;9.222;2023-05-12T01:18:26;101069.91;;;14.06;100.00
32324;BME280;25666;44.350;9.222;2023-05-12T01:20:52;101066.31;;;14.06;100.00
32324;BME280;25666;44.350;9.222;2023-05-12T01:23:23;101070.59;;;13.84;100.00
32324;BME280;25666;44.350;9.222;2023-05-12T01:25:51;101067.69;;;13.96;100.00
32324;BME280;25666;44.350;9.222;2023-05-12T01:28:17;101067.94;;;13.91;100.00
32324;BME280;25666;44.350;9.222;2023-05-12T01:30:43;101070.69;;;13.87;100.00
32324;BME280;25666;44.350;9.222;2023-05-12T01:33:11;101079.22;;;13.94;100.00
32324;BME280;25666;44.350;9.222;2023-05-12T01:35:37;101085.13;;;13.89;100.00
32324;BME280;25666;44.350;9.222;2023-05-12T01:38:03;101079.72;;;13.81;100.00
32324;BME280;25666;44.350;9.222;2023-05-12T01:40:31;101084.00;;;13.75;100.00
32324;BME280;25666;44.350;9.222;2023-05-12T01:42:57;101082.97;;;13.83;100.00
32324;BME280;25666;44.350;9.222;2023-05-12T01:45:25;101086.03;;;13.93;100.00
32324;BME280;25666;44.350;9.222;2023-05-12T01:47:52;101077.81;;;13.85;100.00
32324;BME280;25666;44.350;9.222;2023-05-12T01:50:17;101069.06;;;13.86;100.00
32324;BME280;25666;44.350;9.222;2023-05-12T01:52:43;101068.09;;;13.63;100.00
32324;BME280;25666;44.350;9.222;2023-05-12T01:55:12;101067.38;;;13.66;100.00
32324;BME280;25666;44.350;9.222;2023-05-12T01:57:44;101063.03;;;13.84;100.00
32324;BME280;25666;44.350;9.222;2023-05-12T02:00:10;101070.75;;;13.91;100.00
32324;BME280;25666;44.350;9.222;2023-05-12T02:02:39;101077.59;;;14.09;100.00
32324;BME280;25666;44.350;9.222;2023-05-12T02:05:06;101077.59;;;14.28;100.00
32324;BME280;25666;44.350;9.222;2023-05-12T02:07:32;101081.84;;;14.22;100.00
32324;BME280;25666;44.350;9.222;2023-05-12T02:09:57;101080.75;;;14.27;100.00
32324;BME280;25666;44.350;9.222;2023-05-12T02:12:24;101083.22;;;14.47;100.00
32324;BME280;25666;44.350;9.222;2023-05-12T02:14:50;101085.59;;;14.45;100.00
32324;BME280;25666;44.350;9.222;2023-05-12T02:17:15;101085.84;;;14.21;100.00
32324;BME280;25666;44.350;9.222;2023-05-12T02:19:42;101094.34;;;14.44;100.00
32324;BME280;25666;44.350;9.222;2023-05-12T02:22:11;101092.75;;;14.81;100.00
32324;BME280;25666;44.350;9.222;2023-05-12T02:24:55;101102.59;;;14.94;100.00
32324;BME280;25666;44.350;9.222;2023-05-12T02:27:21;101098.63;;;14.76;100.00
32324;BME280;25666;44.350;9.222;2023-05-12T02:29:46;101099.75;;;14.53;100.00
32324;BME280;25666;44.350;9.222;2023-05-12T02:32:13;101099.59;;;14.45;100.00
32324;BME280;25666;44.350;9.222;2023-05-12T02:34:41;101101.06;;;14.39;100.00
32324;BME280;25666;44.350;9.222;2023-05-12T02:37:07;101100.09;;;14.51;100.00
32324;BME280;25666;44.350;9.222;2023-05-12T02:39:33;101112.28;;;14.39;100.00
32324;BME280;25666;44.350;9.222;2023-05-12T02:41:58;101120.47;;;14.48;100.00
32324;BME280;25666;44.350;9.222;2023-05-12T02:44:23;101123.78;;;14.54;100.00
32324;BME280;25666;44.350;9.222;2023-05-12T02:46:50;101119.44;;;14.56;100.00
32324;BME280;25666;44.350;9.222;2023-05-12T02:49:15;101128.44;;;14.46;100.00
32324;BME280;25666;44.350;9.222;2023-05-12T02:51:41;101128.44;;;14.30;100.00
32324;BME280;25666;44.350;9.222;2023-05-12T02:54:06;101128.88;;;14.32;100.00
32324;BME280;25666;44.350;9.222;2023-05-12T02:56:32;101122.97;;;14.18;100.00
32324;BME280;25666;44.350;9.222;2023-05-12T02:58:57;101118.72;;;14.24;100.00
32324;BME280;25666;44.350;9.222;2023-05-12T03:01:22;101113.31;;;14.16;100.00
32324;BME280;25666;44.350;9.222;2023-05-12T03:03:48;101108.16;;;14.33;100.00
32324;BME280;25666;44.350;9.222;2023-05-12T03:06:14;101107.75;;;14.35;100.00
32324;BME280;25666;44.350;9.222;2023-05-12T03:08:40;101104.69;;;14.05;100.00
32324;BME280;25666;44.350;9.222;2023-05-12T03:11:05;101109.34;;;14.17;100.00
32324;BME280;25666;44.350;9.222;2023-05-12T03:13:31;101102.25;;;14.23;100.00
32324;BME280;25666;44.350;9.222;2023-05-12T03:15:56;101104.50;;;13.98;100.00
32324;BME280;25666;44.350;9.222;2023-05-12T03:18:26;101098.50;;;13.80;100.00
32324;BME280;25666;44.350;9.222;2023-05-12T03:20:53;101099.28;;;13.97;100.00
32324;BME280;25666;44.350;9.222;2023-05-12T03:23:20;101100.88;;;13.98;100.00
32324;BME280;25666;44.350;9.222;2023-05-12T03:25:46;101103.03;;;14.04;100.00
32324;BME280;25666;44.350;9.222;2023-05-12T03:28:12;101109.94;;;13.75;100.00
32324;BME280;25666;44.350;9.222;2023-05-12T03:30:37;101105.47;;;13.71;100.00
32324;BME280;25666;44.350;9.222;2023-05-12T03:33:03;101107.69;;;13.97;100.00
32324;BME280;25666;44.350;9.222;2023-05-12T03:35:28;101112.81;;;13.94;100.00
32324;BME280;25666;44.350;9.222;2023-05-12T03:37:55;101117.25;;;13.95;100.00
32324;BME280;25666;44.350;9.222;2023-05-12T03:40:20;101116.09;;;13.97;100.00
32324;BME280;25666;44.350;9.222;2023-05-12T03:42:46;101116.88;;;13.97;100.00
32324;BME280;25666;44.350;9.222;2023-05-12T03:45:11;101116.84;;;13.78;100.00
32324;BME280;25666;44.350;9.222;2023-05-12T03:47:37;101112.59;;;13.84;100.00
32324;BME280;25666;44.350;9.222;2023-05-12T03:50:05;101127.97;;;14.09;100.00
32324;BME280;25666;44.350;9.222;2023-05-12T03:52:32;101138.00;;;13.94;100.00
32324;BME280;25666;44.350;9.222;2023-05-12T03:54:59;101142.00;;;13.93;100.00
32324;BME280;25666;44.350;9.222;2023-05-12T03:57:24;101146.50;;;13.98;100.00
32324;BME280;25666;44.350;9.222;2023-05-12T03:59:50;101156.16;;;13.85;100.00
32324;BME280;25666;44.350;9.222;2023-05-12T04:02:16;101145.25;;;13.80;100.00
32324;BME280;25666;44.350;9.222;2023-05-12T04:04:41;101149.41;;;13.70;100.00
32324;BME280;25666;44.350;9.222;2023-05-12T04:07:07;101145.88;;;13.89;100.00
32324;BME280;25666;44.350;9.222;2023-05-12T04:09:32;101142.72;;;13.90;100.00
32324;BME280;25666;44.350;9.222;2023-05-12T04:11:58;101152.56;;;13.84;100.00
32324;BME280;25666;44.350;9.222;2023-05-12T04:14:23;101146.78;;;13.93;100.00
32324;BME280;25666;44.350;9.222;2023-05-12T04:16:49;101152.56;;;13.84;100.00
32324;BME280;25666;44.350;9.222;2023-05-12T04:19:15;101152.00;;;13.79;100.00
32324;BME280;25666;44.350;9.222;2023-05-12T04:21:41;101151.13;;;13.90;100.00
32324;BME280;25666;44.350;9.222;2023-05-12T04:24:06;101134.97;;;13.68;100.00
32324;BME280;25666;44.350;9.222;2023-05-12T04:26:35;101139.28;;;13.81;100.00
32324;BME280;25666;44.350;9.222;2023-05-12T04:29:00;101136.13;;;13.83;100.00
32324;BME280;25666;44.350;9.222;2023-05-12T04:31:25;101121.59;;;13.93;100.00
32324;BME280;25666;44.350;9.222;2023-05-12T04:33:51;101126.25;;;14.05;100.00
32324;BME280;25666;44.350;9.222;2023-05-12T04:36:19;101125.22;;;14.13;100.00
32324;BME280;25666;44.350;9.222;2023-05-12T04:38:45;101131.72;;;14.17;100.00
32324;BME280;25666;44.350;9.222;2023-05-12T04:41:11;101133.78;;;14.20;100.00
32324;BME280;25666;44.350;9.222;2023-05-12T04:43:36;101141.47;;;14.23;100.00
32324;BME280;25666;44.350;9.222;2023-05-12T04:46:02;101144.81;;;14.13;100.00
32324;BME280;25666;44.350;9.222;2023-05-12T04:48:27;101145.16;;;14.27;100.00
32324;BME280;25666;44.350;9.222;2023-05-12T04:50:57;101151.28;;;14.32;100.00
32324;BME280;25666;44.350;9.222;2023-05-12T04:53:22;101155.84;;;14.37;100.00
32324;BME280;25666;44.350;9.222;2023-05-12T04:55:48;101160.31;;;14.41;100.00
32324;BME280;25666;44.350;9.222;2023-05-12T04:58:15;101163.59;;;14.43;100.00
32324;BME280;25666;44.350;9.222;2023-05-12T05:00:41;101175.28;;;14.14;100.00
32324;BME280;25666;44.350;9.222;2023-05-12T05:03:07;101185.47;;;14.07;100.00
32324;BME280;25666;44.350;9.222;2023-05-12T05:05:32;101183.75;;;14.18;100.00
32324;BME280;25666;44.350;9.222;2023-05-12T05:07:58;101194.94;;;14.18;100.00
32324;BME280;25666;44.350;9.222;2023-05-12T05:10:24;101201.72;;;14.17;100.00
32324;BME280;25666;44.350;9.222;2023-05-12T05:12:49;101202.53;;;14.17;100.00
32324;BME280;25666;44.350;9.222;2023-05-12T05:15:15;101195.13;;;14.25;100.00
32324;BME280;25666;44.350;9.222;2023-05-12T05:17:41;101201.38;;;14.03;100.00
32324;BME280;25666;44.350;9.222;2023-05-12T05:20:08;101212.41;;;13.95;100.00
32324;BME280;25666;44.350;9.222;2023-05-12T05:22:35;101216.63;;;14.05;100.00
32324;BME280;25666;44.350;9.222;2023-05-12T05:25:04;101215.81;;;14.20;100.00
32324;BME280;25666;44.350;9.222;2023-05-12T05:27:31;101216.25;;;14.22;100.00
32324;BME280;25666;44.350;9.222;2023-05-12T05:29:56;101211.84;;;14.21;100.00
32324;BME280;25666;44.350;9.222;2023-05-12T05:32:22;101215.00;;;14.20;100.00
32324;BME280;25666;44.350;9.222;2023-05-12T05:34:48;101213.00;;;14.20;100.00
32324;BME280;25666;44.350;9.222;2023-05-12T05:37:13;101204.63;;;14.05;100.00
32324;BME280;25666;44.350;9.222;2023-05-12T05:39:38;101204.28;;;14.06;100.00
32324;BME280;25666;44.350;9.222;2023-05-12T05:42:04;101204.63;;;14.05;100.00
32324;BME280;25666;44.350;9.222;2023-05-12T05:44:30;101210.50;;;14.15;100.00
32324;BME280;25666;44.350;9.222;2023-05-12T05:46:55;101211.38;;;14.19;100.00
32324;BME280;25666;44.350;9.222;2023-05-12T05:49:23;101216.63;;;14.21;100.00
32324;BME280;25666;44.350;9.222;2023-05-12T05:51:49;101215.59;;;14.29;100.00
32324;BME280;25666;44.350;9.222;2023-05-12T05:54:15;101218.06;;;14.30;100.00
32324;BME280;25666;44.350;9.222;2023-05-12T05:56:41;101208.31;;;14.24;100.00
32324;BME280;25666;44.350;9.222;2023-05-12T05:59:07;101209.66;;;14.30;100.00
32324;BME280;25666;44.350;9.222;2023-05-12T06:01:34;101197.75;;;14.33;100.00
32324;BME280;25666;44.350;9.222;2023-05-12T06:04:02;101192.75;;;14.42;100.00
32324;BME280;25666;44.350;9.222;2023-05-12T06:06:28;101188.19;;;14.34;100.00
32324;BME280;25666;44.350;9.222;2023-05-12T06:08:53;101191.94;;;14.26;100.00
32324;BME280;25666;44.350;9.222;2023-05-12T06:11:20;101192.16;;;14.33;100.00
32324;BME280;25666;44.350;9.222;2023-05-12T06:13:45;101190.59;;;14.36;100.00
32324;BME280;25666;44.350;9.222;2023-05-12T06:16:11;101193.41;;;14.36;100.00
32324;BME280;25666;44.350;9.222;2023-05-12T06:18:36;101198.88;;;14.32;100.00
32324;BME280;25666;44.350;9.222;2023-05-12T06:21:03;101207.94;;;14.41;100.00
32324;BME280;25666;44.350;9.222;2023-05-12T06:23:28;101214.78;;;14.44;100.00
32324;BME280;25666;44.350;9.222;2023-05-12T06:25:54;101219.94;;;14.42;100.00
32324;BME280;25666;44.350;9.222;2023-05-12T06:28:19;101225.19;;;14.43;100.00
32324;BME280;25666;44.350;9.222;2023-05-12T06:30:45;101235.75;;;14.50;100.00
32324;BME280;25666;44.350;9.222;2023-05-12T06:33:10;101233.41;;;14.52;100.00
32324;BME280;25666;44.350;9.222;2023-05-12T06:35:36;101243.06;;;14.55;100.00
32324;BME280;25666;44.350;9.222;2023-05-12T06:38:04;101248.13;;;14.49;100.00
32324;BME280;25666;44.350;9.222;2023-05-12T06:40:29;101255.06;;;14.55;100.00
32324;BME280;25666;44.350;9.222;2023-05-12T06:42:55;101263.03;;;14.53;100.00
32324;BME280;25666;44.350;9.222;2023-05-12T06:45:24;101273.88;;;14.55;100.00
32324;BME280;25666;44.350;9.222;2023-05-12T06:47:50;101269.81;;;14.52;100.00
32324;BME280;25666;44.350;9.222;2023-05-12T06:50:17;101269.09;;;14.55;100.00
32324;BME280;25666;44.350;9.222;2023-05-12T06:52:43;101274.25;;;14.53;100.00
32324;BME280;25666;44.350;9.222;2023-05-12T06:55:08;101267.22;;;14.43;100.00
32324;BME280;25666;44.350;9.222;2023-05-12T06:57:34;101272.63;;;14.36;100.00
32324;BME280;25666;44.350;9.222;2023-05-12T06:59:59;101274.41;;;14.44;100.00
32324;BME280;25666;44.350;9.222;2023-05-12T07:02:28;101279.59;;;14.42;100.00
32324;BME280;25666;44.350;9.222;2023-05-12T07:04:53;101288.31;;;14.10;100.00
32324;BME280;25666;44.350;9.222;2023-05-12T07:07:19;101294.56;;;14.03;100.00
32324;BME280;25666;44.350;9.222;2023-05-12T07:09:44;101299.34;;;14.03;100.00
32324;BME280;25666;44.350;9.222;2023-05-12T07:12:10;101300.72;;;14.24;100.00
32324;BME280;25666;44.350;9.222;2023-05-12T07:14:35;101309.66;;;14.30;100.00
32324;BME280;25666;44.350;9.222;2023-05-12T07:17:01;101306.34;;;14.40;100.00
32324;BME280;25666;44.350;9.222;2023-05-12T07:19:27;101309.56;;;14.42;100.00
32324;BME280;25666;44.350;9.222;2023-05-12T07:21:52;101307.94;;;14.41;100.00
32324;BME280;25666;44.350;9.222;2023-05-12T07:24:18;101305.69;;;14.31;100.00
32324;BME280;25666;44.350;9.222;2023-05-12T07:26:43;101312.56;;;14.33;100.00
32324;BME280;25666;44.350;9.222;2023-05-12T07:29:09;101314.44;;;14.29;100.00
32324;BME280;25666;44.350;9.222;2023-05-12T07:31:35;101312.66;;;14.37;100.00
32324;BME280;25666;44.350;9.222;2023-05-12T07:34:01;101319.97;;;14.41;100.00
32324;BME280;25666;44.350;9.222;2023-05-12T07:36:27;101313.69;;;14.32;100.00
32324;BME280;25666;44.350;9.222;2023-05-12T07:38:52;101319.81;;;14.34;100.00
32324;BME280;25666;44.350;9.222;2023-05-12T07:41:18;101320.22;;;14.21;100.00
32324;BME280;25666;44.350;9.222;2023-05-12T07:43:44;101315.44;;;14.21;100.00
32324;BME280;25666;44.350;9.222;2023-05-12T07:46:09;101324.72;;;14.10;100.00
32324;BME280;25666;44.350;9.222;2023-05-12T07:48:35;101315.44;;;14.06;100.00
32324;BME280;25666;44.350;9.222;2023-05-12T07:51:07;101316.59;;;14.05;100.00
32324;BME280;25666;44.350;9.222;2023-05-12T07:53:33;101309.44;;;13.91;100.00
32324;BME280;25666;44.350;9.222;2023-05-12T07:55:58;101316.75;;;13.80;100.00
32324;BME280;25666;44.350;9.222;2023-05-12T07:58:24;101312.03;;;13.69;100.00
32324;BME280;25666;44.350;9.222;2023-05-12T08:00:50;101321.16;;;13.81;100.00
32324;BME280;25666;44.350;9.222;2023-05-12T08:03:15;101310.78;;;13.82;100.00
32324;BME280;25666;44.350;9.222;2023-05-12T08:05:41;101320.53;;;13.88;100.00
32324;BME280;25666;44.350;9.222;2023-05-12T08:08:07;101315.41;;;13.90;100.00
32324;BME280;25666;44.350;9.222;2023-05-12T08:10:40;101309.28;;;14.00;100.00
32324;BME280;25666;44.350;9.222;2023-05-12T08:13:06;101315.69;;;14.01;100.00
32324;BME280;25666;44.350;9.222;2023-05-12T08:15:31;101316.13;;;13.87;100.00
32324;BME280;25666;44.350;9.222;2023-05-12T08:17:57;101320.28;;;13.93;100.00
32324;BME280;25666;44.350;9.222;2023-05-12T08:20:22;101322.53;;;13.87;100.00
32324;BME280;25666;44.350;9.222;2023-05-12T08:22:48;101327.13;;;13.80;100.00
32324;BME280;25666;44.350;9.222;2023-05-12T08:25:15;101321.03;;;13.62;100.00
32324;BME280;25666;44.350;9.222;2023-05-12T08:27:40;101317.63;;;13.69;100.00
32324;BME280;25666;44.350;9.222;2023-05-12T08:30:06;101323.56;;;13.67;100.00
32324;BME280;25666;44.350;9.222;2023-05-12T08:32:32;101326.47;;;13.71;100.00
32324;BME280;25666;44.350;9.222;2023-05-12T08:34:59;101341.38;;;13.75;100.00
32324;BME280;25666;44.350;9.222;2023-05-12T08:37:25;101337.34;;;13.60;100.00
32324;BME280;25666;44.350;9.222;2023-05-12T08:39:50;101350.34;;;13.53;100.00
32324;BME280;25666;44.350;9.222;2023-05-12T08:45:02;101345.03;;;13.63;100.00
32324;BME280;25666;44.350;9.222;2023-05-12T08:47:30;101355.38;;;13.75;100.00
32324;BME280;25666;44.350;9.222;2023-05-12T08:50:01;101356.88;;;13.72;100.00
32324;BME280;25666;44.350;9.222;2023-05-12T08:52:28;101351.09;;;13.65;100.00
32324;BME280;25666;44.350;9.222;2023-05-12T08:54:55;101360.75;;;13.68;100.00
32324;BME280;25666;44.350;9.222;2023-05-12T08:57:22;101362.47;;;13.72;100.00
32324;BME280;25666;44.350;9.222;2023-05-12T08:59:47;101370.84;;;13.72;100.00
32324;BME280;25666;44.350;9.222;2023-05-12T09:02:16;101366.78;;;13.70;100.00
32324;BME280;25666;44.350;9.222;2023-05-12T09:04:41;101367.72;;;13.74;100.00
32324;BME280;25666;44.350;9.222;2023-05-12T09:07:07;101362.56;;;13.76;100.00
32324;BME280;25666;44.350;9.222;2023-05-12T09:09:34;101367.03;;;13.92;100.00
32324;BME280;25666;44.350;9.222;2023-05-12T09:12:01;101372.84;;;14.00;100.00
32324;BME280;25666;44.350;9.222;2023-05-12T09:14:29;101366.31;;;13.95;100.00
32324;BME280;25666;44.350;9.222;2023-05-12T09:17:01;101365.44;;;14.07;100.00
32324;BME280;25666;44.350;9.222;2023-05-12T09:19:28;101370.22;;;14.07;100.00
32324;BME280;25666;44.350;9.222;2023-05-12T09:21:54;101361.81;;;14.07;100.00
32324;BME280;25666;44.350;9.222;2023-05-12T09:24:20;101356.41;;;13.98;100.00
32324;BME280;25666;44.350;9.222;2023-05-12T09:26:52;101339.41;;;14.07;100.00
32324;BME280;25666;44.350;9.222;2023-05-12T09:29:19;101325.53;;;14.10;100.00
32324;BME280;25666;44.350;9.222;2023-05-12T09:31:52;101316.59;;;14.05;100.00
32324;BME280;25666;44.350;9.222;2023-05-12T09:34:19;101311.25;;;13.84;100.00
32324;BME280;25666;44.350;9.222;2023-05-12T09:36:55;101302.47;;;13.85;100.00
32324;BME280;25666;44.350;9.222;2023-05-12T09:39:21;101295.50;;;13.64;100.00
32324;BME280;25666;44.350;9.222;2023-05-12T09:41:47;101285.78;;;13.89;100.00
32324;BME280;25666;44.350;9.222;2023-05-12T09:44:14;101283.28;;;13.84;100.00
32324;BME280;25666;44.350;9.222;2023-05-12T09:46:42;101279.03;;;13.90;100.00
32324;BME280;25666;44.350;9.222;2023-05-12T09:49:09;101266.84;;;13.98;100.00
32324;BME280;25666;44.350;9.222;2023-05-12T09:51:34;101258.19;;;14.19;100.00
32324;BME280;25666;44.350;9.222;2023-05-12T09:54:00;101280.41;;;14.43;100.00
32324;BME280;25666;44.350;9.222;2023-05-12T09:56:27;101271.31;;;14.65;100.00
32324;BME280;25666;44.350;9.222;2023-05-12T09:58:55;101270.03;;;14.78;100.00
32324;BME280;25666;44.350;9.222;2023-05-12T10:01:24;101254.59;;;14.88;100.00
32324;BME280;25666;44.350;9.222;2023-05-12T10:03:52;101252.78;;;15.15;100.00
32324;BME280;25666;44.350;9.222;2023-05-12T10:06:32;101253.59;;;14.96;100.00
32324;BME280;25666;44.350;9.222;2023-05-12T10:11:36;101252.72;;;15.11;100.00
32324;BME280;25666;44.350;9.222;2023-05-12T10:14:02;101235.88;;;14.92;100.00
32324;BME280;25666;44.350;9.222;2023-05-12T10:16:28;101232.34;;;15.14;100.00
32324;BME280;25666;44.350;9.222;2023-05-12T10:18:54;101254.53;;;15.42;100.00
32324;BME280;25666;44.350;9.222;2023-05-12T10:21:23;101238.03;;;14.98;100.00
32324;BME280;25666;44.350;9.222;2023-05-12T10:23:49;101235.38;;;15.06;100.00
32324;BME280;25666;44.350;9.222;2023-05-12T10:26:16;101244.44;;;15.37;100.00
32324;BME280;25666;44.350;9.222;2023-05-12T10:28:43;101248.47;;;15.78;100.00
32324;BME280;25666;44.350;9.222;2023-05-12T10:31:09;101257.88;;;15.89;100.00
32324;BME280;25666;44.350;9.222;2023-05-12T10:33:35;101250.56;;;16.07;100.00
32324;BME280;25666;44.350;9.222;2023-05-12T10:36:01;101255.69;;;16.25;100.00
32324;BME280;25666;44.350;9.222;2023-05-12T10:38:34;101256.34;;;16.41;100.00
32324;BME280;25666;44.350;9.222;2023-05-12T10:41:03;101262.22;;;16.55;100.00
32324;BME280;25666;44.350;9.222;2023-05-12T10:43:40;101266.00;;;16.66;100.00
32324;BME280;25666;44.350;9.222;2023-05-12T10:46:21;101271.41;;;16.78;100.00
32324;BME280;25666;44.350;9.222;2023-05-12T10:51:20;101278.38;;;17.18;100.00
32324;BME280;25666;44.350;9.222;2023-05-12T10:53:50;101279.78;;;17.04;100.00
32324;BME280;25666;44.350;9.222;2023-05-12T10:56:21;101280.47;;;17.24;100.00
32324;BME280;25666;44.350;9.222;2023-05-12T10:59:06;101277.75;;;17.31;100.00
32324;BME280;25666;44.350;9.222;2023-05-12T11:01:32;101284.56;;;17.60;100.00
32324;BME280;25666;44.350;9.222;2023-05-12T11:04:12;101289.56;;;17.77;100.00
32324;BME280;25666;44.350;9.222;2023-05-12T11:06:38;101295.72;;;17.90;100.00
32324;BME280;25666;44.350;9.222;2023-05-12T11:09:03;101295.88;;;18.04;100.00
32324;BME280;25666;44.350;9.222;2023-05-12T11:11:29;101291.03;;;18.04;100.00
32324;BME280;25666;44.350;9.222;2023-05-12T11:13:56;101295.72;;;17.90;100.00
32324;BME280;25666;44.350;9.222;2023-05-12T11:16:22;101298.22;;;17.98;100.00
32324;BME280;25666;44.350;9.222;2023-05-12T11:19:03;101296.31;;;17.69;100.00
32324;BME280;25666;44.350;9.222;2023-05-12T11:21:31;101285.38;;;17.64;100.00
32324;BME280;25666;44.350;9.222;2023-05-12T11:23:57;101292.59;;;17.98;100.00
32324;BME280;25666;44.350;9.222;2023-05-12T11:26:23;101291.47;;;18.06;100.00
32324;BME280;25666;44.350;9.222;2023-05-12T11:28:48;101292.44;;;18.25;100.00
32324;BME280;25666;44.350;9.222;2023-05-12T11:31:18;101301.25;;;18.19;100.00
32324;BME280;25666;44.350;9.222;2023-05-12T11:33:45;101297.75;;;17.93;100.00
32324;BME280;25666;44.350;9.222;2023-05-12T11:36:10;101291.56;;;18.17;100.00
32324;BME280;25666;44.350;9.222;2023-05-12T11:38:36;101287.56;;;18.18;100.00
32324;BME280;25666;44.350;9.222;2023-05-12T11:41:01;101285.75;;;17.99;100.00
32324;BME280;25666;44.350;9.222;2023-05-12T11:43:27;101288.22;;;18.04;100.00
32324;BME280;25666;44.350;9.222;2023-05-12T11:45:53;101277.72;;;17.98;100.00
32324;BME280;25666;44.350;9.222;2023-05-12T11:48:31;101276.16;;;18.07;100.00
32324;BME280;25666;44.350;9.222;2023-05-12T11:50:57;101275.38;;;18.07;100.00
32324;BME280;25666;44.350;9.222;2023-05-12T11:53:24;101271.31;;;18.04;100.00
32324;BME280;25666;44.350;9.222;2023-05-12T11:55:50;101268.91;;;18.03;100.00
32324;BME280;25666;44.350;9.222;2023-05-12T11:58:24;101265.53;;;17.87;100.00
32324;BME280;25666;44.350;9.222;2023-05-12T12:00:52;101261.34;;;18.10;100.00
32324;BME280;25666;44.350;9.222;2023-05-12T12:03:17;101257.22;;;18.04;100.00
32324;BME280;25666;44.350;9.222;2023-05-12T12:05:45;101262.13;;;18.11;100.00
32324;BME280;25666;44.350;9.222;2023-05-12T12:08:21;101261.03;;;18.23;100.00
32324;BME280;25666;44.350;9.222;2023-05-12T12:10:46;101252.13;;;18.20;100.00
32324;BME280;25666;44.350;9.222;2023-05-12T12:13:18;101258.22;;;18.23;100.00
32324;BME280;25666;44.350;9.222;2023-05-12T12:15:43;101245.72;;;18.24;100.00
32324;BME280;25666;44.350;9.222;2023-05-12T12:18:09;101239.78;;;18.36;100.00
32324;BME280;25666;44.350;9.222;2023-05-12T12:20:34;101240.91;;;18.24;100.00
32324;BME280;25666;44.350;9.222;2023-05-12T12:23:00;101233.22;;;18.21;100.00
32324;BME280;25666;44.350;9.222;2023-05-12T12:25:25;101231.72;;;18.34;100.00
32324;BME280;25666;44.350;9.222;2023-05-12T12:27:51;101224.13;;;18.38;100.00
32324;BME280;25666;44.350;9.222;2023-05-12T12:30:17;101220.94;;;18.47;100.00
32324;BME280;25666;44.350;9.222;2023-05-12T12:32:43;101220.03;;;18.29;100.00
32324;BME280;25666;44.350;9.222;2023-05-12T12:35:10;101222.53;;;18.41;100.00
32324;BME280;25666;44.350;9.222;2023-05-12T12:37:36;101217.22;;;18.32;100.00
32324;BME280;25666;44.350;9.222;2023-05-12T12:40:02;101216.84;;;18.37;100.00
32324;BME280;25666;44.350;9.222;2023-05-12T12:42:36;101223.75;;;18.47;100.00
32324;BME280;25666;44.350;9.222;2023-05-12T12:45:05;101214.19;;;18.58;100.00